Time,TemperatureF,DewpointF,PressureIn,WindDirection,WindDirectionDegrees,WindSpeedMPH,WindSpeedGustMPH,Humidity,HourlyPrecipIn,Conditions,Clouds,dailyrainin,SoftwareType,DateUTC
2013-09-17 00:04:00,71.8,71.4,28.63,NW,315,2.0,8.0,99,0.00,,,0.22,meteohub,2013-09-17 05:04:00,
2013-09-17 00:09:00,71.8,71.4,28.63,NW,315,2.0,5.0,99,0.00,,,0.22,meteohub,2013-09-17 05:09:00,
2013-09-17 00:14:00,72.0,71.6,28.63,NW,315,1.0,4.0,99,0.00,,,0.22,meteohub,2013-09-17 05:14:00,
2013-09-17 00:19:00,71.8,71.4,28.62,NE,45,1.0,4.0,99,0.00,,,0.22,meteohub,2013-09-17 05:19:00,
2013-09-17 00:24:00,71.8,71.4,28.62,North,0,4.0,4.0,99,0.00,,,0.22,meteohub,2013-09-17 05:24:00,
2013-09-17 00:29:00,71.6,71.2,28.62,North,0,1.0,5.0,99,0.00,,,0.22,meteohub,2013-09-17 05:29:00,
2013-09-17 00:34:00,71.4,71.1,28.61,NW,315,2.0,6.0,99,0.00,,,0.22,meteohub,2013-09-17 05:34:00,
2013-09-17 00:39:00,71.2,70.9,28.61,NW,315,4.0,6.0,99,0.01,,,0.24,meteohub,2013-09-17 05:39:00,
2013-09-17 00:44:00,71.2,70.9,28.62,North,0,1.0,6.0,99,0.02,,,0.25,meteohub,2013-09-17 05:44:00,
2013-09-17 00:49:00,71.1,70.7,28.61,North,0,6.0,6.0,99,0.02,,,0.25,meteohub,2013-09-17 05:49:00,
2013-09-17 00:54:00,71.1,70.7,28.61,NE,45,3.0,5.0,99,0.02,,,0.25,meteohub,2013-09-17 05:54:00,
2013-09-17 00:59:00,71.1,70.7,28.61,WNW,293,1.0,6.0,99,0.02,,,0.25,meteohub,2013-09-17 05:59:00,
2013-09-17 01:04:00,70.9,70.5,28.61,NE,45,1.0,6.0,99,0.02,,,0.25,meteohub,2013-09-17 06:04:00,
2013-09-17 01:09:00,70.9,70.5,28.62,NE,45,1.0,6.0,99,0.02,,,0.25,meteohub,2013-09-17 06:09:00,
2013-09-17 01:14:00,70.7,70.3,28.62,North,0,1.0,6.0,99,0.02,,,0.25,meteohub,2013-09-17 06:14:00,
2013-09-17 01:19:00,70.7,70.3,28.63,East,90,1.0,2.0,99,0.02,,,0.25,meteohub,2013-09-17 06:19:00,
2013-09-17 01:24:00,70.5,70.2,28.62,NE,45,5.0,5.0,99,0.02,,,0.25,meteohub,2013-09-17 06:24:00,
2013-09-17 01:29:00,70.5,70.2,28.61,East,90,4.0,5.0,99,0.02,,,0.25,meteohub,2013-09-17 06:29:00,
2013-09-17 01:34:00,70.3,70.0,28.61,NE,45,8.0,8.0,99,0.01,,,0.25,meteohub,2013-09-17 06:34:00,
2013-09-17 01:39:00,70.3,70.0,28.61,North,0,7.0,7.0,99,0.00,,,0.25,meteohub,2013-09-17 06:39:00,
2013-09-17 01:44:00,70.0,69.4,28.61,NE,45,5.0,8.0,98,0.00,,,0.25,meteohub,2013-09-17 06:44:00,
2013-09-17 01:49:00,70.0,69.4,28.61,East,90,1.0,8.0,98,0.00,,,0.25,meteohub,2013-09-17 06:49:00,
2013-09-17 01:54:00,69.8,69.3,28.60,SE,135,5.0,8.0,98,0.00,,,0.25,meteohub,2013-09-17 06:54:00,
2013-09-17 01:59:00,69.6,69.1,28.61,SE,135,2.0,8.0,98,0.00,,,0.25,meteohub,2013-09-17 06:59:00,
2013-09-17 02:05:00,69.4,69.1,28.60,East,90,3.0,7.0,99,0.00,,,0.25,meteohub,2013-09-17 07:05:00,
2013-09-17 02:09:00,69.4,69.1,28.60,NE,45,7.0,8.0,99,0.00,,,0.25,meteohub,2013-09-17 07:09:00,
2013-09-17 02:14:00,69.4,69.1,28.60,NE,45,6.0,8.0,99,0.00,,,0.25,meteohub,2013-09-17 07:14:00,
2013-09-17 02:20:00,69.4,69.1,28.60,NE,45,3.0,8.0,99,0.00,,,0.25,meteohub,2013-09-17 07:20:00,
2013-09-17 02:25:00,69.3,68.9,28.60,NE,45,4.0,9.0,99,0.00,,,0.25,meteohub,2013-09-17 07:25:00,
2013-09-17 02:30:00,69.4,69.1,28.60,East,90,6.0,9.0,99,0.00,,,0.25,meteohub,2013-09-17 07:30:00,
2013-09-17 02:35:00,69.3,68.9,28.59,NW,315,4.0,9.0,99,0.00,,,0.25,meteohub,2013-09-17 07:35:00,
2013-09-17 02:40:00,69.3,68.9,28.59,NE,45,2.0,8.0,99,0.00,,,0.25,meteohub,2013-09-17 07:40:00,
2013-09-17 02:45:00,69.3,68.9,28.59,NE,45,6.0,8.0,99,0.00,,,0.25,meteohub,2013-09-17 07:45:00,
2013-09-17 02:50:00,69.1,68.7,28.59,NNE,23,4.0,8.0,99,0.00,,,0.25,meteohub,2013-09-17 07:50:00,
2013-09-17 02:55:00,69.3,68.9,28.58,ENE,68,1.0,8.0,99,0.00,,,0.25,meteohub,2013-09-17 07:55:00,
2013-09-17 03:00:00,69.1,68.7,28.58,East,90,4.0,8.0,99,0.00,,,0.25,meteohub,2013-09-17 08:00:00,
2013-09-17 03:05:00,69.3,68.9,28.58,East,90,1.0,8.0,99,0.00,,,0.25,meteohub,2013-09-17 08:05:00,
2013-09-17 03:10:00,69.4,69.1,28.58,East,90,1.0,9.0,99,0.00,,,0.25,meteohub,2013-09-17 08:10:00,
2013-09-17 03:14:00,69.4,69.1,28.58,North,0,2.0,9.0,99,0.00,,,0.25,meteohub,2013-09-17 08:14:00,
2013-09-17 03:20:00,69.1,68.7,28.58,East,90,1.0,9.0,99,0.00,,,0.25,meteohub,2013-09-17 08:20:00,
2013-09-17 03:25:00,69.4,69.1,28.58,East,90,1.0,6.0,99,0.00,,,0.25,meteohub,2013-09-17 08:25:00,
2013-09-17 03:30:00,69.4,69.1,28.57,NE,45,1.0,6.0,99,0.00,,,0.25,meteohub,2013-09-17 08:30:00,
2013-09-17 03:35:00,69.4,69.1,28.57,NE,45,1.0,3.0,99,0.00,,,0.25,meteohub,2013-09-17 08:35:00,
2013-09-17 03:40:00,69.6,69.3,28.57,ESE,113,1.0,2.0,99,0.00,,,0.25,meteohub,2013-09-17 08:40:00,
2013-09-17 03:45:00,69.6,69.3,28.57,NE,45,1.0,2.0,99,0.00,,,0.25,meteohub,2013-09-17 08:45:00,
2013-09-17 03:50:00,69.6,69.3,28.57,NE,45,2.0,2.0,99,0.00,,,0.25,meteohub,2013-09-17 08:50:00,
2013-09-17 03:55:00,69.6,69.3,28.56,NE,45,0.0,1.0,99,0.00,,,0.25,meteohub,2013-09-17 08:55:00,
2013-09-17 04:00:00,69.4,69.1,28.57,NE,45,1.0,2.0,99,0.00,,,0.25,meteohub,2013-09-17 09:00:00,
2013-09-17 04:05:00,69.3,68.9,28.57,NE,45,1.0,2.0,99,0.00,,,0.25,meteohub,2013-09-17 09:05:00,
2013-09-17 04:10:00,69.3,68.9,28.57,NW,315,1.0,2.0,99,0.00,,,0.25,meteohub,2013-09-17 09:10:00,
2013-09-17 04:15:00,69.4,69.1,28.57,West,270,3.0,3.0,99,0.00,,,0.25,meteohub,2013-09-17 09:15:00,
2013-09-17 04:20:00,69.8,69.4,28.57,West,270,3.0,3.0,99,0.00,,,0.25,meteohub,2013-09-17 09:20:00,
2013-09-17 04:25:00,69.8,69.4,28.57,West,270,2.0,4.0,99,0.00,,,0.25,meteohub,2013-09-17 09:25:00,
2013-09-17 04:30:00,69.4,69.1,28.57,NW,315,1.0,5.0,99,0.00,,,0.25,meteohub,2013-09-17 09:30:00,
2013-09-17 04:35:00,69.4,69.1,28.57,West,270,0.0,4.0,99,0.00,,,0.25,meteohub,2013-09-17 09:35:00,
2013-09-17 04:40:00,69.3,68.9,28.57,West,270,0.0,2.0,99,0.00,,,0.25,meteohub,2013-09-17 09:40:00,
2013-09-17 04:45:00,69.3,68.9,28.56,West,270,0.0,1.0,99,0.00,,,0.25,meteohub,2013-09-17 09:45:00,
2013-09-17 04:50:00,69.1,68.7,28.56,West,270,0.0,1.0,99,0.00,,,0.25,meteohub,2013-09-17 09:50:00,
2013-09-17 04:55:00,69.1,68.7,28.56,SW,225,0.0,0.0,99,0.00,,,0.25,meteohub,2013-09-17 09:55:00,
2013-09-17 05:00:00,69.1,68.7,28.56,SW,225,0.0,0.0,99,0.00,,,0.25,meteohub,2013-09-17 10:00:00,
2013-09-17 05:05:00,69.1,68.7,28.56,West,270,0.0,0.0,99,0.00,,,0.25,meteohub,2013-09-17 10:05:00,
2013-09-17 05:10:00,69.1,68.7,28.56,West,270,0.0,0.0,99,0.00,,,0.25,meteohub,2013-09-17 10:10:00,
2013-09-17 05:15:00,69.3,68.9,28.57,NW,315,0.0,0.0,99,0.00,,,0.25,meteohub,2013-09-17 10:15:00,
2013-09-17 05:20:00,69.1,68.7,28.56,West,270,0.0,1.0,99,0.00,,,0.25,meteohub,2013-09-17 10:20:00,
2013-09-17 05:25:00,69.1,68.7,28.56,NW,315,0.0,1.0,99,0.00,,,0.25,meteohub,2013-09-17 10:25:00,
2013-09-17 05:30:00,69.1,68.7,28.56,NW,315,1.0,1.0,99,0.00,,,0.25,meteohub,2013-09-17 10:30:00,
2013-09-17 05:35:00,68.7,68.4,28.57,West,270,0.0,1.0,99,0.00,,,0.25,meteohub,2013-09-17 10:35:00,
2013-09-17 05:40:00,68.7,68.4,28.57,West,270,0.0,1.0,99,0.00,,,0.25,meteohub,2013-09-17 10:40:00,
2013-09-17 05:45:00,68.9,68.5,28.57,West,270,0.0,1.0,99,0.00,,,0.25,meteohub,2013-09-17 10:45:00,
2013-09-17 05:50:00,68.7,68.4,28.57,NW,315,0.0,0.0,99,0.00,,,0.25,meteohub,2013-09-17 10:50:00,
2013-09-17 05:55:00,68.5,68.2,28.56,NW,315,0.0,1.0,99,0.00,,,0.25,meteohub,2013-09-17 10:55:00,
2013-09-17 06:00:00,68.4,68.0,28.57,West,270,0.0,1.0,99,0.00,,,0.25,meteohub,2013-09-17 11:00:00,
2013-09-17 06:05:00,68.5,68.2,28.56,NW,315,0.0,1.0,99,0.00,,,0.25,meteohub,2013-09-17 11:05:00,
2013-09-17 06:10:00,68.4,68.0,28.56,North,0,0.0,0.0,99,0.00,,,0.25,meteohub,2013-09-17 11:10:00,
2013-09-17 06:15:00,68.4,68.0,28.56,North,0,0.0,0.0,99,0.00,,,0.25,meteohub,2013-09-17 11:15:00,
2013-09-17 06:20:00,68.4,68.0,28.56,NW,315,0.0,0.0,99,0.00,,,0.25,meteohub,2013-09-17 11:20:00,
2013-09-17 06:25:00,68.5,68.2,28.56,West,270,0.0,0.0,99,0.00,,,0.25,meteohub,2013-09-17 11:25:00,
2013-09-17 06:30:00,68.4,68.0,28.57,NW,315,0.0,0.0,99,0.00,,,0.25,meteohub,2013-09-17 11:30:00,
2013-09-17 06:35:00,68.4,68.0,28.57,NW,315,0.0,0.0,99,0.00,,,0.25,meteohub,2013-09-17 11:35:00,
2013-09-17 06:41:00,68.4,68.0,28.57,NW,315,0.0,0.0,99,0.00,,,0.25,meteohub,2013-09-17 11:41:00,
2013-09-17 06:46:00,68.4,68.0,28.57,North,0,0.0,0.0,99,0.00,,,0.25,meteohub,2013-09-17 11:46:00,
2013-09-17 06:51:00,68.2,67.8,28.57,NW,315,0.0,0.0,99,0.00,,,0.25,meteohub,2013-09-17 11:51:00,
2013-09-17 06:56:00,68.2,67.8,28.57,North,0,0.0,0.0,99,0.00,,,0.25,meteohub,2013-09-17 11:56:00,
2013-09-17 07:01:00,68.2,67.8,28.57,West,270,0.0,0.0,99,0.00,,,0.25,meteohub,2013-09-17 12:01:00,
2013-09-17 07:06:00,68.2,67.8,28.57,West,270,0.0,0.0,99,0.00,,,0.25,meteohub,2013-09-17 12:06:00,
2013-09-17 07:11:00,68.2,67.8,28.58,North,0,0.0,0.0,99,0.00,,,0.25,meteohub,2013-09-17 12:11:00,
2013-09-17 07:16:00,68.2,67.8,28.58,West,270,0.0,0.0,99,0.00,,,0.25,meteohub,2013-09-17 12:16:00,
2013-09-17 07:21:00,68.2,67.8,28.58,NW,315,0.0,0.0,99,0.00,,,0.25,meteohub,2013-09-17 12:21:00,
2013-09-17 07:26:00,68.4,68.0,28.58,North,0,0.0,0.0,99,0.00,,,0.25,meteohub,2013-09-17 12:26:00,
2013-09-17 07:31:00,68.4,68.0,28.58,NW,315,0.0,0.0,99,0.00,,,0.25,meteohub,2013-09-17 12:31:00,
2013-09-17 07:36:00,68.5,68.2,28.58,NW,315,0.0,0.0,99,0.00,,,0.25,meteohub,2013-09-17 12:36:00,
2013-09-17 07:41:00,68.5,68.2,28.59,West,270,0.0,0.0,99,0.00,,,0.25,meteohub,2013-09-17 12:41:00,
2013-09-17 07:46:00,68.7,68.4,28.59,NW,315,0.0,0.0,99,0.00,,,0.25,meteohub,2013-09-17 12:46:00,
2013-09-17 07:51:00,68.9,68.5,28.59,West,270,0.0,0.0,99,0.00,,,0.25,meteohub,2013-09-17 12:51:00,
2013-09-17 07:56:00,68.9,68.5,28.59,NW,315,0.0,1.0,99,0.00,,,0.25,meteohub,2013-09-17 12:56:00,
2013-09-17 08:01:00,69.1,68.7,28.59,North,0,0.0,1.0,99,0.00,,,0.25,meteohub,2013-09-17 13:01:00,
2013-09-17 08:06:00,69.1,68.7,28.59,NW,315,0.0,0.0,99,0.00,,,0.25,meteohub,2013-09-17 13:06:00,
2013-09-17 08:11:00,69.3,68.9,28.59,North,0,0.0,0.0,99,0.00,,,0.25,meteohub,2013-09-17 13:11:00,
2013-09-17 08:16:00,69.4,69.1,28.59,North,0,0.0,0.0,99,0.00,,,0.25,meteohub,2013-09-17 13:16:00,
2013-09-17 08:21:00,69.8,69.4,28.59,NE,45,0.0,0.0,99,0.00,,,0.25,meteohub,2013-09-17 13:21:00,
2013-09-17 08:27:00,69.8,69.4,28.59,NW,315,0.0,0.0,99,0.00,,,0.25,meteohub,2013-09-17 13:27:00,
2013-09-17 08:32:00,69.8,69.4,28.59,North,0,0.0,0.0,99,0.00,,,0.25,meteohub,2013-09-17 13:32:00,
2013-09-17 08:37:00,70.3,70.0,28.60,West,270,0.0,0.0,99,0.00,,,0.25,meteohub,2013-09-17 13:37:00,
2013-09-17 08:42:00,70.3,70.0,28.60,NW,315,0.0,0.0,99,0.00,,,0.25,meteohub,2013-09-17 13:42:00,
2013-09-17 08:47:00,70.5,70.2,28.60,NW,315,0.0,0.0,99,0.00,,,0.25,meteohub,2013-09-17 13:47:00,
2013-09-17 08:52:00,70.7,70.3,28.60,West,270,0.0,0.0,99,0.00,,,0.25,meteohub,2013-09-17 13:52:00,
2013-09-17 08:57:00,71.1,70.7,28.59,West,270,0.0,0.0,99,0.00,,,0.25,meteohub,2013-09-17 13:57:00,
2013-09-17 09:02:00,71.1,70.7,28.60,SW,225,0.0,0.0,99,0.00,,,0.25,meteohub,2013-09-17 14:02:00,
2013-09-17 09:07:00,71.4,71.1,28.60,West,270,0.0,0.0,99,0.00,,,0.25,meteohub,2013-09-17 14:07:00,
2013-09-17 09:12:00,71.6,71.2,28.60,West,270,0.0,0.0,99,0.00,,,0.25,meteohub,2013-09-17 14:12:00,
2013-09-17 09:17:00,72.0,71.6,28.60,SW,225,0.0,0.0,99,0.00,,,0.25,meteohub,2013-09-17 14:17:00,
2013-09-17 09:22:00,72.1,71.8,28.60,SW,225,2.0,0.0,99,0.00,,,0.25,meteohub,2013-09-17 14:22:00,
2013-09-17 09:27:00,72.5,72.1,28.60,SW,225,0.0,2.0,99,0.00,,,0.25,meteohub,2013-09-17 14:27:00,
2013-09-17 09:32:00,72.9,72.3,28.60,West,270,0.0,2.0,98,0.00,,,0.25,meteohub,2013-09-17 14:32:00,
2013-09-17 09:37:00,73.2,72.3,28.60,South,180,0.0,2.0,97,0.00,,,0.25,meteohub,2013-09-17 14:37:00,
2013-09-17 09:42:00,73.6,72.3,28.60,East,90,0.0,0.0,96,0.00,,,0.25,meteohub,2013-09-17 14:42:00,
2013-09-17 09:47:00,73.9,72.5,28.60,SE,135,0.0,1.0,95,0.00,,,0.25,meteohub,2013-09-17 14:47:00,
2013-09-17 09:52:00,74.5,72.0,28.60,SSE,158,1.0,1.0,92,0.00,,,0.25,meteohub,2013-09-17 14:52:00,
2013-09-17 09:57:00,74.8,72.0,28.61,East,90,1.0,1.0,91,0.00,,,0.25,meteohub,2013-09-17 14:57:00,
2013-09-17 10:02:00,75.2,72.1,28.61,WSW,248,1.0,1.0,90,0.00,,,0.25,meteohub,2013-09-17 15:02:00,
2013-09-17 10:07:00,75.4,71.6,28.61,SSE,158,1.0,1.0,88,0.00,,,0.25,meteohub,2013-09-17 15:07:00,
2013-09-17 10:12:00,75.2,71.4,28.61,South,180,1.0,2.0,88,0.00,,,0.25,meteohub,2013-09-17 15:12:00,
2013-09-17 10:17:00,75.4,72.0,28.61,SE,135,0.0,3.0,89,0.00,,,0.25,meteohub,2013-09-17 15:17:00,
2013-09-17 10:22:00,75.7,72.0,28.61,East,90,1.0,3.0,88,0.00,,,0.25,meteohub,2013-09-17 15:22:00,
2013-09-17 10:27:00,75.9,72.1,28.61,SW,225,1.0,3.0,88,0.00,,,0.25,meteohub,2013-09-17 15:27:00,
2013-09-17 10:32:00,76.3,72.5,28.60,South,180,1.0,1.0,88,0.00,,,0.25,meteohub,2013-09-17 15:32:00,
2013-09-17 10:37:00,76.6,71.8,28.60,South,180,3.0,3.0,85,0.00,,,0.25,meteohub,2013-09-17 15:37:00,
2013-09-17 10:42:00,77.0,72.1,28.60,South,180,2.0,4.0,85,0.00,,,0.25,meteohub,2013-09-17 15:42:00,
2013-09-17 10:47:00,77.5,72.7,28.60,SE,135,1.0,4.0,85,0.00,,,0.25,meteohub,2013-09-17 15:47:00,
2013-09-17 10:52:00,77.5,72.3,28.60,NE,45,1.0,4.0,84,0.00,,,0.25,meteohub,2013-09-17 15:52:00,
2013-09-17 10:57:00,77.7,72.5,28.60,East,90,1.0,3.0,84,0.00,,,0.25,meteohub,2013-09-17 15:57:00,
2013-09-17 11:02:00,78.1,72.9,28.60,East,90,1.0,3.0,84,0.00,,,0.25,meteohub,2013-09-17 16:02:00,
2013-09-17 11:07:00,78.1,72.5,28.60,SE,135,1.0,3.0,83,0.00,,,0.25,meteohub,2013-09-17 16:07:00,
2013-09-17 11:12:00,78.3,72.7,28.60,East,90,1.0,3.0,83,0.00,,,0.25,meteohub,2013-09-17 16:12:00,
2013-09-17 11:17:00,78.4,73.2,28.60,South,180,1.0,3.0,84,0.00,,,0.25,meteohub,2013-09-17 16:17:00,
2013-09-17 11:22:00,78.8,73.2,28.60,SE,135,1.0,2.0,83,0.00,,,0.25,meteohub,2013-09-17 16:22:00,
2013-09-17 11:27:00,79.3,73.0,28.60,SE,135,1.0,1.0,81,0.00,,,0.25,meteohub,2013-09-17 16:27:00,
2013-09-17 11:32:00,79.5,72.9,28.59,North,0,1.0,1.0,80,0.00,,,0.25,meteohub,2013-09-17 16:32:00,
2013-09-17 11:37:00,80.1,73.0,28.60,South,180,1.0,1.0,79,0.01,,,0.26,meteohub,2013-09-17 16:37:00,
2013-09-17 11:42:00,80.4,72.5,28.59,NE,45,1.0,1.0,77,0.01,,,0.26,meteohub,2013-09-17 16:42:00,
2013-09-17 11:47:00,80.8,71.8,28.59,South,180,4.0,4.0,74,0.01,,,0.26,meteohub,2013-09-17 16:47:00,
2013-09-17 11:52:00,81.5,72.9,28.59,NE,45,1.0,4.0,75,0.01,,,0.26,meteohub,2013-09-17 16:52:00,
2013-09-17 11:57:00,82.8,73.2,28.59,SE,135,1.0,4.0,73,0.01,,,0.26,meteohub,2013-09-17 16:57:00,
2013-09-17 12:02:00,84.2,73.4,28.58,East,90,4.0,4.0,70,0.01,,,0.26,meteohub,2013-09-17 17:02:00,
2013-09-17 12:07:00,84.2,72.0,28.58,East,90,1.0,4.0,67,0.01,,,0.26,meteohub,2013-09-17 17:07:00,
2013-09-17 12:12:00,84.4,73.0,28.58,East,90,2.0,4.0,69,0.01,,,0.26,meteohub,2013-09-17 17:12:00,
2013-09-17 12:17:00,84.9,73.6,28.58,South,180,1.0,4.0,69,0.01,,,0.26,meteohub,2013-09-17 17:17:00,
2013-09-17 12:22:00,85.6,73.4,28.58,South,180,5.0,5.0,67,0.01,,,0.26,meteohub,2013-09-17 17:22:00,
2013-09-17 12:27:00,85.3,72.7,28.58,SW,225,5.0,7.0,66,0.01,,,0.26,meteohub,2013-09-17 17:27:00,
2013-09-17 12:32:00,85.5,72.9,28.58,NE,45,1.0,7.0,66,0.00,,,0.26,meteohub,2013-09-17 17:32:00,
2013-09-17 12:37:00,85.8,73.2,28.58,East,90,1.0,7.0,66,0.00,,,0.26,meteohub,2013-09-17 17:37:00,
2013-09-17 12:42:00,85.8,72.1,28.58,SW,225,5.0,7.0,64,0.00,,,0.26,meteohub,2013-09-17 17:42:00,
2013-09-17 12:47:00,86.0,72.3,28.58,SE,135,1.0,6.0,64,0.00,,,0.26,meteohub,2013-09-17 17:47:00,
2013-09-17 12:52:00,86.9,72.3,28.58,SW,225,8.0,8.0,62,0.00,,,0.26,meteohub,2013-09-17 17:52:00,
2013-09-17 12:57:00,86.2,72.1,28.57,South,180,4.0,8.0,63,0.00,,,0.26,meteohub,2013-09-17 17:57:00,
2013-09-17 13:02:00,86.2,71.1,28.57,South,180,6.0,8.0,61,0.00,,,0.26,meteohub,2013-09-17 18:02:00,
2013-09-17 13:07:00,86.0,72.3,28.57,SW,225,5.0,8.0,64,0.00,,,0.26,meteohub,2013-09-17 18:07:00,
2013-09-17 13:12:00,85.6,71.1,28.56,South,180,7.0,9.0,62,0.00,,,0.26,meteohub,2013-09-17 18:12:00,
2013-09-17 13:17:00,86.0,71.4,28.56,SW,225,7.0,9.0,62,0.00,,,0.26,meteohub,2013-09-17 18:17:00,
2013-09-17 13:22:00,86.4,69.8,28.56,SW,225,9.0,9.0,58,0.00,,,0.26,meteohub,2013-09-17 18:22:00,
2013-09-17 13:27:00,86.5,68.9,28.55,South,180,4.0,9.0,56,0.00,,,0.26,meteohub,2013-09-17 18:27:00,
2013-09-17 13:32:00,86.5,69.4,28.55,SE,135,3.0,9.0,57,0.00,,,0.26,meteohub,2013-09-17 18:32:00,
2013-09-17 13:37:00,87.4,70.9,28.55,SW,225,7.0,9.0,58,0.00,,,0.26,meteohub,2013-09-17 18:37:00,
2013-09-17 13:42:00,87.4,69.3,28.55,SW,225,8.0,8.0,55,0.00,,,0.26,meteohub,2013-09-17 18:42:00,
2013-09-17 13:47:00,86.9,69.8,28.54,South,180,3.0,9.0,57,0.00,,,0.26,meteohub,2013-09-17 18:47:00,
2013-09-17 13:52:00,86.7,69.6,28.54,South,180,8.0,9.0,57,0.00,,,0.26,meteohub,2013-09-17 18:52:00,
2013-09-17 13:57:00,86.5,69.4,28.54,SW,225,11.0,15.0,57,0.00,,,0.26,meteohub,2013-09-17 18:57:00,
2013-09-17 14:02:00,86.2,69.6,28.54,South,180,7.0,15.0,58,0.00,,,0.26,meteohub,2013-09-17 19:02:00,
2013-09-17 14:07:00,85.6,70.2,28.54,West,270,8.0,15.0,60,0.00,,,0.26,meteohub,2013-09-17 19:07:00,
2013-09-17 14:12:00,85.8,70.3,28.53,South,180,8.0,11.0,60,0.00,,,0.26,meteohub,2013-09-17 19:12:00,
2013-09-17 14:17:00,85.3,70.3,28.53,South,180,6.0,11.0,61,0.00,,,0.26,meteohub,2013-09-17 19:17:00,
2013-09-17 14:22:00,84.6,71.1,28.52,East,90,6.0,12.0,64,0.00,,,0.26,meteohub,2013-09-17 19:22:00,
2013-09-17 14:28:00,84.4,70.9,28.52,SE,135,6.0,12.0,64,0.00,,,0.26,meteohub,2013-09-17 19:28:00,
2013-09-17 14:33:00,84.9,71.4,28.52,East,90,1.0,12.0,64,0.00,,,0.26,meteohub,2013-09-17 19:33:00,
2013-09-17 14:38:00,85.6,71.1,28.52,East,90,3.0,10.0,62,0.00,,,0.26,meteohub,2013-09-17 19:38:00,
2013-09-17 14:43:00,87.3,71.2,28.52,West,270,1.0,8.0,59,0.00,,,0.26,meteohub,2013-09-17 19:43:00,
2013-09-17 14:48:00,88.7,70.5,28.52,South,180,1.0,6.0,55,0.00,,,0.26,meteohub,2013-09-17 19:48:00,
2013-09-17 14:53:00,88.3,69.6,28.52,NE,45,6.0,6.0,54,0.00,,,0.26,meteohub,2013-09-17 19:53:00,
2013-09-17 14:58:00,87.4,69.3,28.52,West,270,3.0,8.0,55,0.00,,,0.26,meteohub,2013-09-17 19:58:00,
2013-09-17 15:03:00,87.3,70.2,28.52,South,180,1.0,8.0,57,0.00,,,0.26,meteohub,2013-09-17 20:03:00,
2013-09-17 15:08:00,86.9,69.8,28.52,East,90,2.0,8.0,57,0.00,,,0.26,meteohub,2013-09-17 20:08:00,
2013-09-17 15:13:00,86.5,68.9,28.52,South,180,4.0,7.0,56,0.00,,,0.26,meteohub,2013-09-17 20:13:00,
2013-09-17 15:18:00,86.5,70.0,28.52,East,90,1.0,7.0,58,0.00,,,0.26,meteohub,2013-09-17 20:18:00,
2013-09-17 15:23:00,85.6,69.6,28.52,East,90,7.0,7.0,59,0.00,,,0.26,meteohub,2013-09-17 20:23:00,
2013-09-17 15:28:00,83.1,70.2,28.52,SE,135,8.0,8.0,65,0.00,,,0.26,meteohub,2013-09-17 20:28:00,
2013-09-17 15:33:00,81.9,70.3,28.51,East,90,9.0,11.0,68,0.00,,,0.26,meteohub,2013-09-17 20:33:00,
2013-09-17 15:38:00,81.3,71.1,28.51,SE,135,10.0,12.0,71,0.00,,,0.26,meteohub,2013-09-17 20:38:00,
2013-09-17 15:43:00,80.8,71.2,28.51,East,90,11.0,13.0,73,0.00,,,0.26,meteohub,2013-09-17 20:43:00,
2013-09-17 15:48:00,81.5,72.3,28.51,East,90,10.0,13.0,74,0.00,,,0.26,meteohub,2013-09-17 20:48:00,
2013-09-17 15:53:00,82.8,72.9,28.50,SE,135,8.0,15.0,72,0.00,,,0.26,meteohub,2013-09-17 20:53:00,
2013-09-17 15:58:00,82.6,70.9,28.50,East,90,19.0,19.0,68,0.00,,,0.26,meteohub,2013-09-17 20:58:00,
2013-09-17 16:03:00,81.3,69.8,28.51,East,90,12.0,19.0,68,0.00,,,0.26,meteohub,2013-09-17 21:03:00,
2013-09-17 16:08:00,79.7,69.4,28.51,SE,135,10.0,19.0,71,0.00,,,0.26,meteohub,2013-09-17 21:08:00,
2013-09-17 16:13:00,79.2,69.8,28.51,NE,45,8.0,19.0,73,0.00,,,0.26,meteohub,2013-09-17 21:13:00,
2013-09-17 16:18:00,78.4,70.2,28.51,SE,135,8.0,14.0,76,0.00,,,0.26,meteohub,2013-09-17 21:18:00,
2013-09-17 16:23:00,77.5,70.2,28.51,South,180,5.0,14.0,78,0.00,,,0.26,meteohub,2013-09-17 21:23:00,
2013-09-17 16:29:00,76.8,70.5,28.51,East,90,6.0,14.0,81,0.00,,,0.26,meteohub,2013-09-17 21:29:00,
2013-09-17 16:34:00,76.5,70.9,28.52,SE,135,11.0,14.0,83,0.00,,,0.26,meteohub,2013-09-17 21:34:00,
2013-09-17 16:39:00,75.9,71.4,28.51,East,90,6.0,11.0,86,0.00,,,0.26,meteohub,2013-09-17 21:39:00,
2013-09-17 16:44:00,75.6,71.1,28.51,SE,135,5.0,11.0,86,0.00,,,0.26,meteohub,2013-09-17 21:44:00,
2013-09-17 16:49:00,75.2,71.1,28.51,East,90,2.0,11.0,87,0.00,,,0.26,meteohub,2013-09-17 21:49:00,
2013-09-17 16:54:00,75.0,71.2,28.51,SE,135,3.0,8.0,88,0.00,,,0.26,meteohub,2013-09-17 21:54:00,
2013-09-17 16:59:00,75.0,71.2,28.51,SE,135,1.0,7.0,88,0.00,,,0.26,meteohub,2013-09-17 21:59:00,
2013-09-17 17:04:00,74.7,71.2,28.50,SE,135,3.0,5.0,89,0.00,,,0.26,meteohub,2013-09-17 22:04:00,
2013-09-17 17:10:00,74.7,71.2,28.50,East,90,1.0,5.0,89,0.01,,,0.27,meteohub,2013-09-17 22:10:00,
2013-09-17 17:15:00,74.5,71.4,28.50,SE,135,3.0,4.0,90,0.01,,,0.27,meteohub,2013-09-17 22:15:00,
2013-09-17 17:20:00,74.7,71.8,28.49,SE,135,1.0,3.0,91,0.01,,,0.27,meteohub,2013-09-17 22:20:00,
2013-09-17 17:25:00,74.7,71.8,28.49,NE,45,1.0,3.0,91,0.01,,,0.27,meteohub,2013-09-17 22:25:00,
2013-09-17 17:30:00,75.0,72.1,28.49,East,90,1.0,1.0,91,0.01,,,0.27,meteohub,2013-09-17 22:30:00,
2013-09-17 17:35:00,75.4,72.3,28.49,ESE,113,2.0,2.0,90,0.01,,,0.27,meteohub,2013-09-17 22:35:00,
2013-09-17 17:40:00,75.2,71.8,28.49,East,90,1.0,2.0,89,0.01,,,0.27,meteohub,2013-09-17 22:40:00,
2013-09-17 17:45:00,75.4,72.0,28.49,North,0,1.0,4.0,89,0.01,,,0.27,meteohub,2013-09-17 22:45:00,
2013-09-17 17:50:00,75.2,71.8,28.49,East,90,1.0,4.0,89,0.01,,,0.27,meteohub,2013-09-17 22:50:00,
2013-09-17 17:55:00,75.2,71.8,28.49,SE,135,1.0,2.0,89,0.01,,,0.27,meteohub,2013-09-17 22:55:00,
2013-09-17 18:01:00,75.2,71.8,28.49,South,180,1.0,2.0,89,0.02,,,0.28,meteohub,2013-09-17 23:01:00,
2013-09-17 18:06:00,75.2,72.1,28.49,East,90,1.0,2.0,90,0.01,,,0.28,meteohub,2013-09-17 23:06:00,
2013-09-17 18:11:00,75.2,72.3,28.49,SE,135,1.0,2.0,91,0.01,,,0.28,meteohub,2013-09-17 23:11:00,
2013-09-17 18:16:00,74.8,72.0,28.49,SE,135,1.0,1.0,91,0.01,,,0.28,meteohub,2013-09-17 23:16:00,
2013-09-17 18:21:00,74.8,72.3,28.49,SE,135,1.0,4.0,92,0.01,,,0.28,meteohub,2013-09-17 23:21:00,
2013-09-17 18:26:00,75.0,72.5,28.48,SE,135,1.0,4.0,92,0.01,,,0.28,meteohub,2013-09-17 23:26:00,
2013-09-17 18:31:00,74.8,72.7,28.49,SSE,158,3.0,4.0,93,0.01,,,0.28,meteohub,2013-09-17 23:31:00,
2013-09-17 18:36:00,74.8,72.7,28.49,NW,315,1.0,3.0,93,0.01,,,0.28,meteohub,2013-09-17 23:36:00,
2013-09-17 18:41:00,74.8,72.7,28.49,SE,135,1.0,4.0,93,0.01,,,0.28,meteohub,2013-09-17 23:41:00,
2013-09-17 18:46:00,75.0,73.2,28.49,SW,225,2.0,4.0,94,0.01,,,0.28,meteohub,2013-09-17 23:46:00,
2013-09-17 18:51:00,75.0,73.2,28.49,South,180,1.0,3.0,94,0.01,,,0.28,meteohub,2013-09-17 23:51:00,
2013-09-17 18:56:00,75.0,73.4,28.49,SSE,158,1.0,3.0,95,0.02,,,0.30,meteohub,2013-09-17 23:56:00,
2013-09-17 19:01:00,75.0,73.4,28.49,East,90,1.0,4.0,95,0.01,,,0.30,meteohub,2013-09-18 00:01:00,
2013-09-17 19:07:00,74.8,73.2,28.49,South,180,0.0,4.0,95,0.01,,,0.00,meteohub,2013-09-18 00:07:00,
2013-09-17 19:12:00,74.8,73.2,28.48,SW,225,1.0,1.0,95,0.01,,,0.00,meteohub,2013-09-18 00:12:00,
2013-09-17 19:17:00,74.7,73.2,28.48,East,90,0.0,1.0,95,0.01,,,0.00,meteohub,2013-09-18 00:17:00,
2013-09-17 19:22:00,74.7,73.4,28.48,SE,135,1.0,1.0,96,0.01,,,0.00,meteohub,2013-09-18 00:22:00,
2013-09-17 19:27:00,74.5,73.2,28.48,SE,135,0.0,1.0,96,0.01,,,0.00,meteohub,2013-09-18 00:27:00,
2013-09-17 19:32:00,74.7,73.4,28.48,East,90,0.0,1.0,96,0.01,,,0.00,meteohub,2013-09-18 00:32:00,
2013-09-17 19:37:00,74.5,73.2,28.48,South,180,1.0,1.0,96,0.01,,,0.00,meteohub,2013-09-18 00:37:00,
2013-09-17 19:42:00,74.7,73.4,28.48,SW,225,0.0,1.0,96,0.01,,,0.00,meteohub,2013-09-18 00:42:00,
2013-09-17 19:47:00,74.5,73.6,28.48,East,90,0.0,1.0,97,0.01,,,0.00,meteohub,2013-09-18 00:47:00,
2013-09-17 19:52:00,74.3,73.4,28.48,SE,135,0.0,1.0,97,0.01,,,0.00,meteohub,2013-09-18 00:52:00,
2013-09-17 19:57:00,74.3,73.4,28.48,East,90,0.0,1.0,97,0.00,,,0.00,meteohub,2013-09-18 00:57:00,
2013-09-17 20:02:00,74.5,73.6,28.48,East,90,1.0,1.0,97,0.00,,,0.00,meteohub,2013-09-18 01:02:00,
2013-09-17 20:07:00,74.7,73.8,28.48,SE,135,1.0,1.0,97,0.00,,,0.00,meteohub,2013-09-18 01:07:00,
2013-09-17 20:12:00,75.0,73.8,28.48,SE,135,1.0,1.0,96,0.00,,,0.00,meteohub,2013-09-18 01:12:00,
2013-09-17 20:17:00,75.4,74.1,28.48,East,90,1.0,1.0,96,0.00,,,0.00,meteohub,2013-09-18 01:17:00,
2013-09-17 20:22:00,75.2,73.6,28.48,East,90,0.0,1.0,95,0.00,,,0.00,meteohub,2013-09-18 01:22:00,
2013-09-17 20:27:00,75.6,73.9,28.48,East,90,1.0,1.0,95,0.00,,,0.00,meteohub,2013-09-18 01:27:00,
2013-09-17 20:32:00,75.2,73.6,28.48,SE,135,1.0,1.0,95,0.00,,,0.00,meteohub,2013-09-18 01:32:00,
2013-09-17 20:37:00,75.4,73.8,28.48,East,90,0.0,1.0,95,0.00,,,0.00,meteohub,2013-09-18 01:37:00,
2013-09-17 20:42:00,75.2,73.6,28.48,East,90,1.0,1.0,95,0.00,,,0.00,meteohub,2013-09-18 01:42:00,
2013-09-17 20:47:00,75.2,73.6,28.48,East,90,1.0,4.0,95,0.00,,,0.00,meteohub,2013-09-18 01:47:00,
2013-09-17 20:52:00,75.2,73.6,28.48,East,90,1.0,4.0,95,0.00,,,0.00,meteohub,2013-09-18 01:52:00,
2013-09-17 20:57:00,75.6,73.8,28.48,East,90,1.0,3.0,94,0.00,,,0.00,meteohub,2013-09-18 01:57:00,
2013-09-17 21:02:00,75.6,73.8,28.48,NE,45,1.0,2.0,94,0.00,,,0.00,meteohub,2013-09-18 02:02:00,
2013-09-17 21:07:00,75.7,73.9,28.48,WNW,293,1.0,1.0,94,0.00,,,0.00,meteohub,2013-09-18 02:07:00,
2013-09-17 21:12:00,75.9,74.1,28.48,East,90,5.0,5.0,94,0.00,,,0.00,meteohub,2013-09-18 02:12:00,
2013-09-17 21:17:00,75.9,74.1,28.48,East,90,1.0,7.0,94,0.00,,,0.00,meteohub,2013-09-18 02:17:00,
2013-09-17 21:22:00,75.9,74.1,28.48,East,90,1.0,7.0,94,0.00,,,0.00,meteohub,2013-09-18 02:22:00,
2013-09-17 21:28:00,75.7,73.9,28.48,North,0,2.0,7.0,94,0.00,,,0.00,meteohub,2013-09-18 02:28:00,
2013-09-17 21:33:00,75.7,73.9,28.49,SE,135,1.0,5.0,94,0.00,,,0.00,meteohub,2013-09-18 02:33:00,
2013-09-17 21:38:00,75.9,73.8,28.49,East,90,6.0,6.0,93,0.00,,,0.00,meteohub,2013-09-18 02:38:00,
2013-09-17 21:43:00,75.7,73.6,28.49,SE,135,4.0,6.0,93,0.00,,,0.00,meteohub,2013-09-18 02:43:00,
2013-09-17 21:48:00,76.1,73.6,28.49,NE,45,4.0,8.0,92,0.00,,,0.00,meteohub,2013-09-18 02:48:00,
2013-09-17 21:53:00,75.9,73.4,28.49,SE,135,1.0,8.0,92,0.00,,,0.00,meteohub,2013-09-18 02:53:00,
2013-09-17 21:58:00,75.6,73.0,28.49,SE,135,1.0,8.0,92,0.00,,,0.00,meteohub,2013-09-18 02:58:00,
2013-09-17 22:03:00,75.7,73.6,28.49,East,90,7.0,7.0,93,0.00,,,0.00,meteohub,2013-09-18 03:03:00,
2013-09-17 22:08:00,75.7,73.2,28.49,SE,135,1.0,5.0,92,0.00,,,0.00,meteohub,2013-09-18 03:08:00,
2013-09-17 22:13:00,75.7,73.2,28.49,East,90,1.0,7.0,92,0.00,,,0.00,meteohub,2013-09-18 03:13:00,
2013-09-17 22:18:00,75.9,73.0,28.49,East,90,1.0,7.0,91,0.00,,,0.00,meteohub,2013-09-18 03:18:00,
2013-09-17 22:23:00,75.9,72.9,28.49,NE,45,3.0,8.0,90,0.00,,,0.00,meteohub,2013-09-18 03:23:00,
2013-09-17 22:28:00,76.3,73.0,28.49,SE,135,1.0,8.0,90,0.00,,,0.00,meteohub,2013-09-18 03:28:00,
2013-09-17 22:33:00,76.1,72.9,28.50,NE,45,1.0,8.0,90,0.00,,,0.00,meteohub,2013-09-18 03:33:00,
2013-09-17 22:38:00,76.1,72.9,28.50,East,90,1.0,7.0,90,0.00,,,0.00,meteohub,2013-09-18 03:38:00,
2013-09-17 22:43:00,75.9,72.9,28.50,East,90,1.0,6.0,90,0.00,,,0.00,meteohub,2013-09-18 03:43:00,
2013-09-17 22:48:00,75.9,72.9,28.50,East,90,3.0,4.0,90,0.00,,,0.00,meteohub,2013-09-18 03:48:00,
2013-09-17 22:54:00,75.9,72.9,28.49,East,90,1.0,4.0,90,0.00,,,0.00,meteohub,2013-09-18 03:54:00,
2013-09-17 22:59:00,76.1,72.9,28.49,East,90,1.0,4.0,90,0.00,,,0.00,meteohub,2013-09-18 03:59:00,
2013-09-17 23:01:00,75.7,72.7,28.49,NE,45,2.0,4.0,90,0.00,,,0.00,meteohub,2013-09-18 04:01:00,
2013-09-17 23:02:00,75.7,72.7,28.49,NE,45,2.0,4.0,90,0.00,,,0.00,meteohub,2013-09-18 04:02:00,
2013-09-17 23:07:00,76.3,73.0,28.50,SE,135,1.0,8.0,90,0.00,,,0.00,meteohub,2013-09-18 04:07:00,
2013-09-17 23:12:00,75.9,72.5,28.49,North,0,4.0,8.0,89,0.00,,,0.00,meteohub,2013-09-18 04:12:00,
2013-09-17 23:17:00,76.1,72.7,28.50,East,90,1.0,4.0,89,0.00,,,0.00,meteohub,2013-09-18 04:17:00,
2013-09-17 23:22:00,76.1,72.7,28.49,East,90,1.0,4.0,89,0.00,,,0.00,meteohub,2013-09-18 04:22:00,
2013-09-17 23:27:00,75.7,72.3,28.50,NE,45,2.0,4.0,89,0.00,,,0.00,meteohub,2013-09-18 04:27:00,
2013-09-17 23:32:00,75.7,72.3,28.49,SE,135,4.0,5.0,89,0.00,,,0.00,meteohub,2013-09-18 04:32:00,
2013-09-17 23:38:00,75.7,72.3,28.49,SE,135,4.0,5.0,89,0.00,,,0.00,meteohub,2013-09-18 04:38:00,
2013-09-17 23:42:00,75.7,72.3,28.49,East,90,1.0,5.0,89,0.00,,,0.00,meteohub,2013-09-18 04:42:00,
2013-09-17 23:48:00,75.9,72.1,28.50,NE,45,2.0,4.0,88,0.00,,,0.00,meteohub,2013-09-18 04:48:00,
2013-09-17 23:53:00,75.9,72.1,28.49,SE,135,4.0,5.0,88,0.00,,,0.00,meteohub,2013-09-18 04:53:00,
2013-09-17 23:58:00,75.7,71.6,28.49,East,90,4.0,5.0,87,0.00,,,0.00,meteohub,2013-09-18 04:58:00,